sensor_id;sensor_type;location;lat;lon;timestamp;P1;durP1;ratioP1;P2;durP2;ratioP2
3843;SDS011;1937;51.444;6.484;2023-07-22T00:00:47;14.60;;;8.00;;
3843;SDS011;1937;51.444;6.484;2023-07-22T00:03:13;13.03;;;7.90;;
3843;SDS011;1937;51.444;6.484;2023-07-22T00:05:40;13.30;;;7.70;;
3843;SDS011;1937;51.444;6.484;2023-07-22T00:08:08;13.17;;;7.90;;
3843;SDS011;1937;51.444;6.484;2023-07-22T00:10:35;12.80;;;7.87;;
3843;SDS011;1937;51.444;6.484;2023-07-22T00:13:06;11.40;;;7.80;;
3843;SDS011;1937;51.444;6.484;2023-07-22T00:15:32;12.37;;;7.80;;
3843;SDS011;1937;51.444;6.484;2023-07-22T00:18:01;12.50;;;8.13;;
3843;SDS011;1937;51.444;6.484;2023-07-22T00:20:27;14.43;;;8.03;;
3843;SDS011;1937;51.444;6.484;2023-07-22T00:22:54;13.93;;;8.53;;
3843;SDS011;1937;51.444;6.484;2023-07-22T00:25:21;14.13;;;8.37;;
3843;SDS011;1937;51.444;6.484;2023-07-22T00:27:48;19.33;;;8.47;;
3843;SDS011;1937;51.444;6.484;2023-07-22T00:30:15;13.00;;;7.10;;
3843;SDS011;1937;51.444;6.484;2023-07-22T00:32:42;15.90;;;8.00;;
3843;SDS011;1937;51.444;6.484;2023-07-22T00:35:10;15.90;;;9.10;;
3843;SDS011;1937;51.444;6.484;2023-07-22T00:37:36;12.20;;;7.83;;
3843;SDS011;1937;51.444;6.484;2023-07-22T00:40:04;15.00;;;8.60;;
3843;SDS011;1937;51.444;6.484;2023-07-22T00:42:36;12.93;;;7.93;;
3843;SDS011;1937;51.444;6.484;2023-07-22T00:45:03;12.47;;;6.67;;
3843;SDS011;1937;51.444;6.484;2023-07-22T00:47:30;10.30;;;7.00;;
3843;SDS011;1937;51.444;6.484;2023-07-22T00:49:59;14.23;;;8.20;;
3843;SDS011;1937;51.444;6.484;2023-07-22T00:52:29;12.70;;;7.10;;
3843;SDS011;1937;51.444;6.484;2023-07-22T00:54:55;13.27;;;8.57;;
3843;SDS011;1937;51.444;6.484;2023-07-22T00:57:22;13.17;;;7.60;;
3843;SDS011;1937;51.444;6.484;2023-07-22T00:59:49;13.00;;;7.90;;
3843;SDS011;1937;51.444;6.484;2023-07-22T01:02:15;12.20;;;7.17;;
3843;SDS011;1937;51.444;6.484;2023-07-22T01:04:42;10.10;;;6.97;;
3843;SDS011;1937;51.444;6.484;2023-07-22T01:07:09;16.07;;;8.70;;
3843;SDS011;1937;51.444;6.484;2023-07-22T01:09:38;11.37;;;7.73;;
3843;SDS011;1937;51.444;6.484;2023-07-22T01:12:06;13.60;;;8.03;;
3843;SDS011;1937;51.444;6.484;2023-07-22T01:14:33;17.50;;;9.10;;
3843;SDS011;1937;51.444;6.484;2023-07-22T01:17:00;12.47;;;7.63;;
3843;SDS011;1937;51.444;6.484;2023-07-22T01:19:28;14.30;;;8.60;;
3843;SDS011;1937;51.444;6.484;2023-07-22T01:21:55;15.60;;;8.73;;
3843;SDS011;1937;51.444;6.484;2023-07-22T01:24:24;14.50;;;7.90;;
3843;SDS011;1937;51.444;6.484;2023-07-22T01:26:51;16.37;;;8.07;;
3843;SDS011;1937;51.444;6.484;2023-07-22T01:29:18;15.37;;;8.90;;
3843;SDS011;1937;51.444;6.484;2023-07-22T01:31:46;13.43;;;7.40;;
3843;SDS011;1937;51.444;6.484;2023-07-22T01:34:14;16.00;;;8.43;;
3843;SDS011;1937;51.444;6.484;2023-07-22T01:36:42;13.33;;;7.50;;
3843;SDS011;1937;51.444;6.484;2023-07-22T01:39:08;13.93;;;8.60;;
3843;SDS011;1937;51.444;6.484;2023-07-22T01:41:38;16.43;;;8.83;;
3843;SDS011;1937;51.444;6.484;2023-07-22T01:44:05;15.67;;;9.63;;
3843;SDS011;1937;51.444;6.484;2023-07-22T01:46:32;15.40;;;8.50;;
3843;SDS011;1937;51.444;6.484;2023-07-22T01:49:00;13.53;;;7.77;;
3843;SDS011;1937;51.444;6.484;2023-07-22T01:51:27;14.73;;;8.93;;
3843;SDS011;1937;51.444;6.484;2023-07-22T01:53:54;14.40;;;8.53;;
3843;SDS011;1937;51.444;6.484;2023-07-22T01:56:22;12.90;;;8.00;;
3843;SDS011;1937;51.444;6.484;2023-07-22T01:58:49;16.73;;;7.13;;
3843;SDS011;1937;51.444;6.484;2023-07-22T02:01:16;13.37;;;7.60;;
3843;SDS011;1937;51.444;6.484;2023-07-22T02:03:43;18.03;;;8.80;;
3843;SDS011;1937;51.444;6.484;2023-07-22T02:06:10;14.50;;;8.63;;
3843;SDS011;1937;51.444;6.484;2023-07-22T02:08:37;16.90;;;8.13;;
3843;SDS011;1937;51.444;6.484;2023-07-22T02:11:04;10.80;;;8.10;;
3843;SDS011;1937;51.444;6.484;2023-07-22T02:13:33;17.80;;;8.07;;
3843;SDS011;1937;51.444;6.484;2023-07-22T02:16:02;17.77;;;9.00;;
3843;SDS011;1937;51.444;6.484;2023-07-22T02:18:29;12.73;;;8.33;;
3843;SDS011;1937;51.444;6.484;2023-07-22T02:20:56;12.43;;;8.40;;
3843;SDS011;1937;51.444;6.484;2023-07-22T02:23:24;12.93;;;7.83;;
3843;SDS011;1937;51.444;6.484;2023-07-22T02:25:51;16.97;;;9.27;;
3843;SDS011;1937;51.444;6.484;2023-07-22T02:28:17;16.13;;;9.00;;
3843;SDS011;1937;51.444;6.484;2023-07-22T02:30:46;19.17;;;9.13;;
3843;SDS011;1937;51.444;6.484;2023-07-22T02:33:14;15.00;;;8.90;;
3843;SDS011;1937;51.444;6.484;2023-07-22T02:35:41;12.70;;;8.07;;
3843;SDS011;1937;51.444;6.484;2023-07-22T02:38:07;14.60;;;9.00;;
3843;SDS011;1937;51.444;6.484;2023-07-22T02:40:35;12.60;;;7.70;;
3843;SDS011;1937;51.444;6.484;2023-07-22T02:43:01;18.00;;;8.80;;
3843;SDS011;1937;51.444;6.484;2023-07-22T02:45:28;14.70;;;8.27;;
3843;SDS011;1937;51.444;6.484;2023-07-22T02:47:55;16.00;;;8.20;;
3843;SDS011;1937;51.444;6.484;2023-07-22T02:50:23;13.37;;;7.77;;
3843;SDS011;1937;51.444;6.484;2023-07-22T02:52:50;13.93;;;9.40;;
3843;SDS011;1937;51.444;6.484;2023-07-22T02:55:16;19.77;;;9.27;;
3843;SDS011;1937;51.444;6.484;2023-07-22T02:57:44;13.80;;;8.80;;
3843;SDS011;1937;51.444;6.484;2023-07-22T03:00:13;12.70;;;8.53;;
3843;SDS011;1937;51.444;6.484;2023-07-22T03:02:45;14.53;;;8.40;;
3843;SDS011;1937;51.444;6.484;2023-07-22T03:05:12;36.47;;;11.33;;
3843;SDS011;1937;51.444;6.484;2023-07-22T03:07:40;12.37;;;8.43;;
3843;SDS011;1937;51.444;6.484;2023-07-22T03:10:07;12.30;;;7.70;;
3843;SDS011;1937;51.444;6.484;2023-07-22T03:12:35;16.60;;;8.70;;
3843;SDS011;1937;51.444;6.484;2023-07-22T03:15:02;14.30;;;7.60;;
3843;SDS011;1937;51.444;6.484;2023-07-22T03:17:30;15.03;;;7.97;;
3843;SDS011;1937;51.444;6.484;2023-07-22T03:19:56;16.30;;;8.80;;
3843;SDS011;1937;51.444;6.484;2023-07-22T03:22:23;15.00;;;7.93;;
3843;SDS011;1937;51.444;6.484;2023-07-22T03:24:51;16.87;;;8.00;;
3843;SDS011;1937;51.444;6.484;2023-07-22T03:27:17;14.90;;;7.70;;
3843;SDS011;1937;51.444;6.484;2023-07-22T03:29:44;14.47;;;7.67;;
3843;SDS011;1937;51.444;6.484;2023-07-22T03:32:10;12.77;;;8.33;;
3843;SDS011;1937;51.444;6.484;2023-07-22T03:34:37;21.73;;;8.07;;
3843;SDS011;1937;51.444;6.484;2023-07-22T03:37:03;14.17;;;7.27;;
3843;SDS011;1937;51.444;6.484;2023-07-22T03:39:30;13.00;;;7.10;;
3843;SDS011;1937;51.444;6.484;2023-07-22T03:41:58;12.53;;;7.60;;
3843;SDS011;1937;51.444;6.484;2023-07-22T03:44:25;16.40;;;8.87;;
3843;SDS011;1937;51.444;6.484;2023-07-22T03:46:53;13.20;;;7.83;;
3843;SDS011;1937;51.444;6.484;2023-07-22T03:49:20;13.93;;;7.60;;
3843;SDS011;1937;51.444;6.484;2023-07-22T03:51:46;14.37;;;8.93;;
3843;SDS011;1937;51.444;6.484;2023-07-22T03:54:13;12.80;;;7.70;;
3843;SDS011;1937;51.444;6.484;2023-07-22T03:56:40;15.40;;;8.70;;
3843;SDS011;1937;51.444;6.484;2023-07-22T03:59:08;14.63;;;7.77;;
3843;SDS011;1937;51.444;6.484;2023-07-22T04:01:35;15.63;;;7.57;;
3843;SDS011;1937;51.444;6.484;2023-07-22T04:04:01;16.47;;;7.87;;
3843;SDS011;1937;51.444;6.484;2023-07-22T04:06:28;13.60;;;7.87;;
3843;SDS011;1937;51.444;6.484;2023-07-22T04:08:55;13.73;;;8.07;;
3843;SDS011;1937;51.444;6.484;2023-07-22T04:11:21;14.97;;;7.73;;
3843;SDS011;1937;51.444;6.484;2023-07-22T04:13:48;15.00;;;8.47;;
3843;SDS011;1937;51.444;6.484;2023-07-22T04:16:16;14.67;;;9.53;;
3843;SDS011;1937;51.444;6.484;2023-07-22T04:18:43;17.80;;;9.23;;
3843;SDS011;1937;51.444;6.484;2023-07-22T04:21:09;17.50;;;8.80;;
3843;SDS011;1937;51.444;6.484;2023-07-22T04:23:36;19.17;;;8.30;;
3843;SDS011;1937;51.444;6.484;2023-07-22T04:26:03;13.00;;;8.03;;
3843;SDS011;1937;51.444;6.484;2023-07-22T04:28:32;16.43;;;8.53;;
3843;SDS011;1937;51.444;6.484;2023-07-22T04:30:59;13.17;;;8.20;;
3843;SDS011;1937;51.444;6.484;2023-07-22T04:33:27;12.00;;;7.37;;
3843;SDS011;1937;51.444;6.484;2023-07-22T04:35:55;12.07;;;8.00;;
3843;SDS011;1937;51.444;6.484;2023-07-22T04:38:23;14.13;;;8.53;;
3843;SDS011;1937;51.444;6.484;2023-07-22T04:40:50;15.47;;;8.73;;
3843;SDS011;1937;51.444;6.484;2023-07-22T04:43:17;15.30;;;7.87;;
3843;SDS011;1937;51.444;6.484;2023-07-22T04:45:44;14.10;;;7.60;;
3843;SDS011;1937;51.444;6.484;2023-07-22T04:48:12;15.60;;;9.90;;
3843;SDS011;1937;51.444;6.484;2023-07-22T04:50:41;14.00;;;7.80;;
3843;SDS011;1937;51.444;6.484;2023-07-22T04:53:10;14.97;;;8.10;;
3843;SDS011;1937;51.444;6.484;2023-07-22T04:55:38;11.50;;;7.53;;
3843;SDS011;1937;51.444;6.484;2023-07-22T04:58:04;19.40;;;8.17;;
3843;SDS011;1937;51.444;6.484;2023-07-22T05:00:31;13.70;;;8.23;;
3843;SDS011;1937;51.444;6.484;2023-07-22T05:02:58;17.70;;;8.20;;
3843;SDS011;1937;51.444;6.484;2023-07-22T05:05:25;15.10;;;7.67;;
3843;SDS011;1937;51.444;6.484;2023-07-22T05:07:53;14.67;;;7.77;;
3843;SDS011;1937;51.444;6.484;2023-07-22T05:10:20;12.07;;;7.07;;
3843;SDS011;1937;51.444;6.484;2023-07-22T05:12:46;16.63;;;8.13;;
3843;SDS011;1937;51.444;6.484;2023-07-22T05:15:13;16.80;;;8.07;;
3843;SDS011;1937;51.444;6.484;2023-07-22T05:17:40;11.97;;;8.33;;
3843;SDS011;1937;51.444;6.484;2023-07-22T05:20:07;13.70;;;7.50;;
3843;SDS011;1937;51.444;6.484;2023-07-22T05:22:35;13.17;;;7.53;;
3843;SDS011;1937;51.444;6.484;2023-07-22T05:25:04;13.40;;;7.80;;
3843;SDS011;1937;51.444;6.484;2023-07-22T05:27:32;16.37;;;8.83;;
3843;SDS011;1937;51.444;6.484;2023-07-22T05:29:58;13.60;;;7.50;;
3843;SDS011;1937;51.444;6.484;2023-07-22T05:32:25;15.20;;;7.47;;
3843;SDS011;1937;51.444;6.484;2023-07-22T05:34:54;12.80;;;7.03;;
3843;SDS011;1937;51.444;6.484;2023-07-22T05:37:21;14.50;;;7.57;;
3843;SDS011;1937;51.444;6.484;2023-07-22T05:39:47;11.47;;;6.97;;
3843;SDS011;1937;51.444;6.484;2023-07-22T05:42:15;13.83;;;7.80;;
3843;SDS011;1937;51.444;6.484;2023-07-22T05:44:42;10.50;;;7.07;;
3843;SDS011;1937;51.444;6.484;2023-07-22T05:47:09;15.57;;;8.60;;
3843;SDS011;1937;51.444;6.484;2023-07-22T05:49:35;15.60;;;8.10;;
3843;SDS011;1937;51.444;6.484;2023-07-22T05:52:02;14.43;;;7.43;;
3843;SDS011;1937;51.444;6.484;2023-07-22T05:54:29;14.87;;;7.60;;
3843;SDS011;1937;51.444;6.484;2023-07-22T05:56:56;13.80;;;7.50;;
3843;SDS011;1937;51.444;6.484;2023-07-22T05:59:24;16.20;;;8.23;;
3843;SDS011;1937;51.444;6.484;2023-07-22T06:01:50;11.90;;;7.73;;
3843;SDS011;1937;51.444;6.484;2023-07-22T06:04:17;13.30;;;8.23;;
3843;SDS011;1937;51.444;6.484;2023-07-22T06:06:44;20.03;;;9.07;;
3843;SDS011;1937;51.444;6.484;2023-07-22T06:09:10;12.60;;;7.57;;
3843;SDS011;1937;51.444;6.484;2023-07-22T06:11:37;17.90;;;9.40;;
3843;SDS011;1937;51.444;6.484;2023-07-22T06:14:03;15.90;;;9.00;;
3843;SDS011;1937;51.444;6.484;2023-07-22T06:16:31;17.47;;;10.63;;
3843;SDS011;1937;51.444;6.484;2023-07-22T06:18:58;13.50;;;8.10;;
3843;SDS011;1937;51.444;6.484;2023-07-22T06:21:25;14.30;;;8.67;;
3843;SDS011;1937;51.444;6.484;2023-07-22T06:23:51;14.30;;;7.70;;
3843;SDS011;1937;51.444;6.484;2023-07-22T06:26:18;15.00;;;8.53;;
3843;SDS011;1937;51.444;6.484;2023-07-22T06:28:44;12.90;;;8.37;;
3843;SDS011;1937;51.444;6.484;2023-07-22T06:31:11;13.20;;;8.40;;
3843;SDS011;1937;51.444;6.484;2023-07-22T06:33:39;13.80;;;8.00;;
3843;SDS011;1937;51.444;6.484;2023-07-22T06:36:05;16.33;;;8.70;;
3843;SDS011;1937;51.444;6.484;2023-07-22T06:38:32;12.57;;;7.87;;
3843;SDS011;1937;51.444;6.484;2023-07-22T06:40:59;14.10;;;9.07;;
3843;SDS011;1937;51.444;6.484;2023-07-22T06:43:25;13.07;;;8.10;;
3843;SDS011;1937;51.444;6.484;2023-07-22T06:45:52;15.67;;;7.87;;
3843;SDS011;1937;51.444;6.484;2023-07-22T06:48:19;14.93;;;8.27;;
3843;SDS011;1937;51.444;6.484;2023-07-22T06:50:49;12.60;;;8.30;;
3843;SDS011;1937;51.444;6.484;2023-07-22T06:53:16;12.70;;;7.40;;
3843;SDS011;1937;51.444;6.484;2023-07-22T06:55:48;16.07;;;8.67;;
3843;SDS011;1937;51.444;6.484;2023-07-22T06:58:15;14.03;;;7.37;;
3843;SDS011;1937;51.444;6.484;2023-07-22T07:00:42;12.50;;;6.80;;
3843;SDS011;1937;51.444;6.484;2023-07-22T07:03:09;10.40;;;7.33;;
3843;SDS011;1937;51.444;6.484;2023-07-22T07:05:36;14.30;;;7.90;;
3843;SDS011;1937;51.444;6.484;2023-07-22T07:08:07;13.80;;;8.73;;
3843;SDS011;1937;51.444;6.484;2023-07-22T07:10:36;16.00;;;9.00;;
3843;SDS011;1937;51.444;6.484;2023-07-22T07:13:03;12.37;;;8.00;;
3843;SDS011;1937;51.444;6.484;2023-07-22T07:15:30;16.13;;;10.13;;
3843;SDS011;1937;51.444;6.484;2023-07-22T07:17:57;13.60;;;8.57;;
3843;SDS011;1937;51.444;6.484;2023-07-22T07:20:23;14.03;;;7.90;;
3843;SDS011;1937;51.444;6.484;2023-07-22T07:22:50;18.23;;;8.63;;
3843;SDS011;1937;51.444;6.484;2023-07-22T07:25:18;11.33;;;7.43;;
3843;SDS011;1937;51.444;6.484;2023-07-22T07:27:44;18.23;;;7.60;;
3843;SDS011;1937;51.444;6.484;2023-07-22T07:30:11;12.07;;;7.17;;
3843;SDS011;1937;51.444;6.484;2023-07-22T07:32:38;9.37;;;7.07;;
3843;SDS011;1937;51.444;6.484;2023-07-22T07:35:05;17.80;;;7.50;;
3843;SDS011;1937;51.444;6.484;2023-07-22T07:37:33;16.17;;;7.23;;
3843;SDS011;1937;51.444;6.484;2023-07-22T07:40:02;12.23;;;7.60;;
3843;SDS011;1937;51.444;6.484;2023-07-22T07:42:31;15.33;;;7.27;;
3843;SDS011;1937;51.444;6.484;2023-07-22T07:44:58;10.07;;;6.50;;
3843;SDS011;1937;51.444;6.484;2023-07-22T07:47:24;12.13;;;7.70;;
3843;SDS011;1937;51.444;6.484;2023-07-22T07:49:51;14.43;;;8.00;;
3843;SDS011;1937;51.444;6.484;2023-07-22T07:52:17;15.30;;;7.50;;
3843;SDS011;1937;51.444;6.484;2023-07-22T07:54:44;10.80;;;7.10;;
3843;SDS011;1937;51.444;6.484;2023-07-22T07:57:11;19.00;;;7.73;;
3843;SDS011;1937;51.444;6.484;2023-07-22T07:59:38;10.00;;;6.80;;
3843;SDS011;1937;51.444;6.484;2023-07-22T08:02:05;15.30;;;8.60;;
3843;SDS011;1937;51.444;6.484;2023-07-22T08:04:34;13.30;;;8.17;;
3843;SDS011;1937;51.444;6.484;2023-07-22T08:07:01;10.67;;;6.77;;
3843;SDS011;1937;51.444;6.484;2023-07-22T08:09:29;10.83;;;7.53;;
3843;SDS011;1937;51.444;6.484;2023-07-22T08:11:56;11.30;;;7.17;;
3843;SDS011;1937;51.444;6.484;2023-07-22T08:14:22;15.23;;;6.90;;
3843;SDS011;1937;51.444;6.484;2023-07-22T08:16:50;11.37;;;6.93;;
3843;SDS011;1937;51.444;6.484;2023-07-22T08:19:17;11.20;;;6.60;;
3843;SDS011;1937;51.444;6.484;2023-07-22T08:21:44;11.47;;;6.70;;
3843;SDS011;1937;51.444;6.484;2023-07-22T08:24:10;12.37;;;6.70;;
3843;SDS011;1937;51.444;6.484;2023-07-22T08:26:37;12.03;;;6.60;;
3843;SDS011;1937;51.444;6.484;2023-07-22T08:29:03;9.10;;;6.00;;
3843;SDS011;1937;51.444;6.484;2023-07-22T08:31:30;15.13;;;7.70;;
3843;SDS011;1937;51.444;6.484;2023-07-22T08:33:58;13.00;;;6.57;;
3843;SDS011;1937;51.444;6.484;2023-07-22T08:36:25;8.93;;;6.10;;
3843;SDS011;1937;51.444;6.484;2023-07-22T08:38:51;8.10;;;5.70;;
3843;SDS011;1937;51.444;6.484;2023-07-22T08:41:18;12.30;;;6.97;;
3843;SDS011;1937;51.444;6.484;2023-07-22T08:43:47;11.80;;;6.00;;
3843;SDS011;1937;51.444;6.484;2023-07-22T08:46:16;9.60;;;5.97;;
3843;SDS011;1937;51.444;6.484;2023-07-22T08:48:46;8.30;;;5.03;;
3843;SDS011;1937;51.444;6.484;2023-07-22T08:51:16;8.83;;;5.87;;
3843;SDS011;1937;51.444;6.484;2023-07-22T08:53:44;13.57;;;6.17;;
3843;SDS011;1937;51.444;6.484;2023-07-22T08:56:11;7.37;;;5.23;;
3843;SDS011;1937;51.444;6.484;2023-07-22T08:58:38;10.20;;;5.67;;
3843;SDS011;1937;51.444;6.484;2023-07-22T09:01:05;11.40;;;6.10;;
3843;SDS011;1937;51.444;6.484;2023-07-22T09:03:32;9.10;;;5.40;;
3843;SDS011;1937;51.444;6.484;2023-07-22T09:05:59;10.50;;;5.30;;
3843;SDS011;1937;51.444;6.484;2023-07-22T09:08:29;7.47;;;4.90;;
3843;SDS011;1937;51.444;6.484;2023-07-22T09:10:55;5.17;;;3.80;;
3843;SDS011;1937;51.444;6.484;2023-07-22T09:13:22;6.80;;;3.87;;
3843;SDS011;1937;51.444;6.484;2023-07-22T09:15:50;7.03;;;4.20;;
3843;SDS011;1937;51.444;6.484;2023-07-22T09:18:18;4.13;;;3.43;;
3843;SDS011;1937;51.444;6.484;2023-07-22T09:20:45;7.40;;;4.10;;
3843;SDS011;1937;51.444;6.484;2023-07-22T09:23:11;8.30;;;3.30;;
3843;SDS011;1937;51.444;6.484;2023-07-22T09:25:39;5.47;;;3.20;;
3843;SDS011;1937;51.444;6.484;2023-07-22T09:28:06;5.47;;;3.80;;
3843;SDS011;1937;51.444;6.484;2023-07-22T09:30:34;5.80;;;3.37;;
3843;SDS011;1937;51.444;6.484;2023-07-22T09:33:02;6.10;;;3.83;;
3843;SDS011;1937;51.444;6.484;2023-07-22T09:35:31;4.20;;;3.13;;
3843;SDS011;1937;51.444;6.484;2023-07-22T09:38:11;6.20;;;4.00;;
3843;SDS011;1937;51.444;6.484;2023-07-22T09:40:40;6.47;;;3.40;;
3843;SDS011;1937;51.444;6.484;2023-07-22T09:43:09;6.00;;;3.10;;
3843;SDS011;1937;51.444;6.484;2023-07-22T09:45:37;9.10;;;4.53;;
3843;SDS011;1937;51.444;6.484;2023-07-22T09:48:04;6.07;;;4.53;;
3843;SDS011;1937;51.444;6.484;2023-07-22T09:50:31;6.67;;;4.03;;
3843;SDS011;1937;51.444;6.484;2023-07-22T09:52:58;5.60;;;3.43;;
3843;SDS011;1937;51.444;6.484;2023-07-22T09:55:27;8.30;;;4.70;;
3843;SDS011;1937;51.444;6.484;2023-07-22T09:57:56;5.40;;;3.73;;
3843;SDS011;1937;51.444;6.484;2023-07-22T10:00:24;3.93;;;3.37;;
3843;SDS011;1937;51.444;6.484;2023-07-22T10:02:55;5.97;;;3.40;;
3843;SDS011;1937;51.444;6.484;2023-07-22T10:05:23;4.40;;;3.13;;
3843;SDS011;1937;51.444;6.484;2023-07-22T10:07:51;5.57;;;3.33;;
3843;SDS011;1937;51.444;6.484;2023-07-22T10:10:20;7.03;;;3.47;;
3843;SDS011;1937;51.444;6.484;2023-07-22T10:12:50;4.23;;;3.40;;
3843;SDS011;1937;51.444;6.484;2023-07-22T10:15:19;7.13;;;3.33;;
3843;SDS011;1937;51.444;6.484;2023-07-22T10:17:46;7.60;;;3.30;;
3843;SDS011;1937;51.444;6.484;2023-07-22T10:20:13;4.73;;;3.37;;
3843;SDS011;1937;51.444;6.484;2023-07-22T10:22:41;4.87;;;3.37;;
3843;SDS011;1937;51.444;6.484;2023-07-22T10:25:10;6.83;;;3.90;;
3843;SDS011;1937;51.444;6.484;2023-07-22T10:27:38;4.67;;;3.03;;
3843;SDS011;1937;51.444;6.484;2023-07-22T10:30:07;2.73;;;2.43;;
3843;SDS011;1937;51.444;6.484;2023-07-22T10:32:37;5.13;;;2.97;;
3843;SDS011;1937;51.444;6.484;2023-07-22T10:35:07;3.13;;;2.80;;
3843;SDS011;1937;51.444;6.484;2023-07-22T10:37:36;3.30;;;3.00;;
3843;SDS011;1937;51.444;6.484;2023-07-22T10:40:16;4.50;;;3.20;;
3843;SDS011;1937;51.444;6.484;2023-07-22T10:42:52;9.60;;;3.27;;
3843;SDS011;1937;51.444;6.484;2023-07-22T10:45:24;4.53;;;3.17;;
3843;SDS011;1937;51.444;6.484;2023-07-22T10:48:01;4.60;;;3.37;;
3843;SDS011;1937;51.444;6.484;2023-07-22T10:50:41;4.83;;;2.60;;
3843;SDS011;1937;51.444;6.484;2023-07-22T10:53:09;3.30;;;2.60;;
3843;SDS011;1937;51.444;6.484;2023-07-22T11:01:35;6.53;;;2.97;;
3843;SDS011;1937;51.444;6.484;2023-07-22T11:04:08;3.60;;;3.30;;
3843;SDS011;1937;51.444;6.484;2023-07-22T11:06:37;3.17;;;2.10;;
3843;SDS011;1937;51.444;6.484;2023-07-22T11:09:05;2.87;;;2.10;;
3843;SDS011;1937;51.444;6.484;2023-07-22T11:11:35;4.83;;;2.80;;
3843;SDS011;1937;51.444;6.484;2023-07-22T11:14:13;3.50;;;2.70;;
3843;SDS011;1937;51.444;6.484;2023-07-22T11:16:41;5.90;;;2.77;;
3843;SDS011;1937;51.444;6.484;2023-07-22T11:19:09;3.37;;;2.53;;
3843;SDS011;1937;51.444;6.484;2023-07-22T11:21:36;4.13;;;2.30;;
3843;SDS011;1937;51.444;6.484;2023-07-22T11:24:02;4.47;;;2.50;;
3843;SDS011;1937;51.444;6.484;2023-07-22T11:26:30;2.40;;;2.20;;
3843;SDS011;1937;51.444;6.484;2023-07-22T11:28:56;5.37;;;2.13;;
3843;SDS011;1937;51.444;6.484;2023-07-22T11:31:29;3.27;;;2.60;;
3843;SDS011;1937;51.444;6.484;2023-07-22T11:33:57;4.53;;;3.30;;
3843;SDS011;1937;51.444;6.484;2023-07-22T11:36:25;6.00;;;2.47;;
3843;SDS011;1937;51.444;6.484;2023-07-22T11:38:51;4.53;;;2.20;;
3843;SDS011;1937;51.444;6.484;2023-07-22T11:41:19;3.10;;;2.33;;
3843;SDS011;1937;51.444;6.484;2023-07-22T11:43:46;3.53;;;2.20;;
3843;SDS011;1937;51.444;6.484;2023-07-22T11:46:13;3.10;;;2.13;;
3843;SDS011;1937;51.444;6.484;2023-07-22T11:48:48;2.90;;;1.87;;
3843;SDS011;1937;51.444;6.484;2023-07-22T11:51:16;4.33;;;2.30;;
3843;SDS011;1937;51.444;6.484;2023-07-22T11:53:44;2.43;;;2.00;;
3843;SDS011;1937;51.444;6.484;2023-07-22T11:56:13;3.97;;;2.20;;
3843;SDS011;1937;51.444;6.484;2023-07-22T11:58:47;2.90;;;1.90;;
3843;SDS011;1937;51.444;6.484;2023-07-22T12:01:15;3.53;;;1.83;;
3843;SDS011;1937;51.444;6.484;2023-07-22T12:03:41;4.73;;;2.57;;
3843;SDS011;1937;51.444;6.484;2023-07-22T12:06:08;4.50;;;2.40;;
3843;SDS011;1937;51.444;6.484;2023-07-22T12:08:35;3.10;;;2.20;;
3843;SDS011;1937;51.444;6.484;2023-07-22T12:11:04;5.20;;;2.63;;
3843;SDS011;1937;51.444;6.484;2023-07-22T12:13:35;4.33;;;3.17;;
3843;SDS011;1937;51.444;6.484;2023-07-22T12:16:02;4.50;;;2.17;;
3843;SDS011;1937;51.444;6.484;2023-07-22T12:18:40;3.00;;;1.90;;
3843;SDS011;1937;51.444;6.484;2023-07-22T12:21:07;2.80;;;2.40;;
3843;SDS011;1937;51.444;6.484;2023-07-22T12:23:35;4.10;;;2.50;;
3843;SDS011;1937;51.444;6.484;2023-07-22T12:26:04;2.80;;;2.13;;
3843;SDS011;1937;51.444;6.484;2023-07-22T12:28:31;2.70;;;1.83;;
3843;SDS011;1937;51.444;6.484;2023-07-22T12:30:58;6.23;;;2.30;;
3843;SDS011;1937;51.444;6.484;2023-07-22T12:33:24;2.23;;;2.03;;
3843;SDS011;1937;51.444;6.484;2023-07-22T12:35:52;4.67;;;2.33;;
3843;SDS011;1937;51.444;6.484;2023-07-22T12:38:20;2.20;;;1.90;;
3843;SDS011;1937;51.444;6.484;2023-07-22T12:40:46;3.07;;;2.20;;
3843;SDS011;1937;51.444;6.484;2023-07-22T12:43:14;3.97;;;2.20;;
3843;SDS011;1937;51.444;6.484;2023-07-22T12:45:44;2.43;;;2.00;;
3843;SDS011;1937;51.444;6.484;2023-07-22T12:48:10;3.80;;;2.00;;
3843;SDS011;1937;51.444;6.484;2023-07-22T12:50:37;2.33;;;1.90;;
3843;SDS011;1937;51.444;6.484;2023-07-22T12:53:03;2.13;;;1.87;;
3843;SDS011;1937;51.444;6.484;2023-07-22T12:55:30;3.70;;;2.20;;
3843;SDS011;1937;51.444;6.484;2023-07-22T12:57:57;3.97;;;2.20;;
3843;SDS011;1937;51.444;6.484;2023-07-22T13:00:24;5.50;;;2.20;;
3843;SDS011;1937;51.444;6.484;2023-07-22T13:02:51;2.93;;;2.20;;
3843;SDS011;1937;51.444;6.484;2023-07-22T13:05:18;3.00;;;2.37;;
3843;SDS011;1937;51.444;6.484;2023-07-22T13:07:44;4.87;;;2.53;;
3843;SDS011;1937;51.444;6.484;2023-07-22T13:10:11;3.33;;;2.30;;
3843;SDS011;1937;51.444;6.484;2023-07-22T13:12:41;3.27;;;2.27;;
3843;SDS011;1937;51.444;6.484;2023-07-22T13:15:08;4.03;;;2.60;;
3843;SDS011;1937;51.444;6.484;2023-07-22T13:17:37;8.23;;;3.10;;
3843;SDS011;1937;51.444;6.484;2023-07-22T13:20:03;4.77;;;2.60;;
3843;SDS011;1937;51.444;6.484;2023-07-22T13:22:32;6.80;;;4.43;;
3843;SDS011;1937;51.444;6.484;2023-07-22T13:24:58;2.33;;;2.13;;
3843;SDS011;1937;51.444;6.484;2023-07-22T13:27:25;3.33;;;1.90;;
3843;SDS011;1937;51.444;6.484;2023-07-22T13:29:51;3.90;;;1.83;;
3843;SDS011;1937;51.444;6.484;2023-07-22T13:32:18;2.47;;;2.07;;
3843;SDS011;1937;51.444;6.484;2023-07-22T13:34:46;2.83;;;2.33;;
3843;SDS011;1937;51.444;6.484;2023-07-22T13:37:13;3.03;;;2.33;;
3843;SDS011;1937;51.444;6.484;2023-07-22T13:39:39;2.90;;;2.60;;
3843;SDS011;1937;51.444;6.484;2023-07-22T13:42:06;3.30;;;2.40;;
3843;SDS011;1937;51.444;6.484;2023-07-22T13:44:33;4.10;;;2.40;;
3843;SDS011;1937;51.444;6.484;2023-07-22T13:46:59;3.60;;;2.40;;
3843;SDS011;1937;51.444;6.484;2023-07-22T13:49:26;3.57;;;2.63;;
3843;SDS011;1937;51.444;6.484;2023-07-22T13:51:54;5.80;;;2.80;;
3843;SDS011;1937;51.444;6.484;2023-07-22T13:54:20;2.20;;;1.77;;
3843;SDS011;1937;51.444;6.484;2023-07-22T13:56:47;3.13;;;2.43;;
3843;SDS011;1937;51.444;6.484;2023-07-22T13:59:14;3.03;;;2.17;;
3843;SDS011;1937;51.444;6.484;2023-07-22T14:01:40;4.63;;;3.00;;
3843;SDS011;1937;51.444;6.484;2023-07-22T14:04:07;4.37;;;2.87;;
3843;SDS011;1937;51.444;6.484;2023-07-22T14:06:34;2.43;;;2.23;;
3843;SDS011;1937;51.444;6.484;2023-07-22T14:09:02;4.80;;;2.37;;
3843;SDS011;1937;51.444;6.484;2023-07-22T14:11:29;2.93;;;2.10;;
3843;SDS011;1937;51.444;6.484;2023-07-22T14:13:55;6.30;;;2.60;;
3843;SDS011;1937;51.444;6.484;2023-07-22T14:16:22;2.90;;;2.30;;
3843;SDS011;1937;51.444;6.484;2023-07-22T14:18:48;3.20;;;2.30;;
3843;SDS011;1937;51.444;6.484;2023-07-22T14:21:16;3.90;;;2.37;;
3843;SDS011;1937;51.444;6.484;2023-07-22T14:23:43;3.50;;;2.50;;
3843;SDS011;1937;51.444;6.484;2023-07-22T14:26:11;2.13;;;1.87;;
3843;SDS011;1937;51.444;6.484;2023-07-22T14:28:37;3.73;;;2.47;;
3843;SDS011;1937;51.444;6.484;2023-07-22T14:31:04;3.73;;;2.13;;
3843;SDS011;1937;51.444;6.484;2023-07-22T14:33:31;3.70;;;2.43;;
3843;SDS011;1937;51.444;6.484;2023-07-22T14:35:57;6.87;;;2.53;;
3843;SDS011;1937;51.444;6.484;2023-07-22T14:38:24;2.63;;;1.90;;
3843;SDS011;1937;51.444;6.484;2023-07-22T14:40:51;3.73;;;2.50;;
3843;SDS011;1937;51.444;6.484;2023-07-22T14:43:19;5.47;;;3.20;;
3843;SDS011;1937;51.444;6.484;2023-07-22T14:45:45;5.40;;;2.17;;
3843;SDS011;1937;51.444;6.484;2023-07-22T14:48:12;2.50;;;2.20;;
3843;SDS011;1937;51.444;6.484;2023-07-22T14:50:39;3.40;;;2.27;;
3843;SDS011;1937;51.444;6.484;2023-07-22T14:53:05;3.70;;;2.00;;
3843;SDS011;1937;51.444;6.484;2023-07-22T14:55:32;2.40;;;1.50;;
3843;SDS011;1937;51.444;6.484;2023-07-22T14:57:59;2.93;;;2.60;;
3843;SDS011;1937;51.444;6.484;2023-07-22T15:00:27;1.93;;;1.80;;
3843;SDS011;1937;51.444;6.484;2023-07-22T15:02:53;3.73;;;2.10;;
3843;SDS011;1937;51.444;6.484;2023-07-22T15:05:20;2.70;;;1.87;;
3843;SDS011;1937;51.444;6.484;2023-07-22T15:07:47;2.87;;;2.00;;
3843;SDS011;1937;51.444;6.484;2023-07-22T15:10:13;1.87;;;1.70;;
3843;SDS011;1937;51.444;6.484;2023-07-22T15:12:40;2.23;;;1.97;;
3843;SDS011;1937;51.444;6.484;2023-07-22T15:15:07;2.40;;;1.93;;